Time;durP1;ratioP1;P1;durP2;ratioP2;P2;SDS_P1;SDS_P2;PMS_P1;PMS_P2;Temp;Humidity;BMP_temperature;BMP_pressure;BME280_temperature;BME280_humidity;BME280_pressure;Samples;Min_cycle;Max_cycle;Signal;HPM_P1;HPM_P2
2022/11/27 00:01:44;;;;;;;27.00;6.63;;;6.40;99.90;;;;;;4930352;29;20134;-65
2022/11/27 00:04:11;;;;;;;32.20;8.27;;;6.40;99.90;;;;;;4930517;28;20044;-65
2022/11/27 00:06:38;;;;;;;26.88;7.55;;;6.40;99.90;;;;;;4923134;29;20043;-65
2022/11/27 00:09:07;;;;;;;29.05;6.95;;;6.40;99.90;;;;;;4928493;28;20036;-65
2022/11/27 00:11:33;;;;;;;21.15;7.40;;;6.40;99.90;;;;;;4928834;29;20048;-66
2022/11/27 00:14:00;;;;;;;23.52;8.18;;;6.40;99.90;;;;;;4932491;29;20074;-66
2022/11/27 00:16:27;;;;;;;25.63;7.93;;;6.40;99.90;;;;;;4929033;28;21929;-65
2022/11/27 00:18:53;;;;;;;21.48;7.78;;;6.40;99.90;;;;;;4927677;29;20418;-66
2022/11/27 00:21:23;;;;;;;22.40;7.13;;;6.30;99.90;;;;;;4913690;29;21124;-65
2022/11/27 00:23:49;;;;;;;27.30;7.60;;;6.30;99.90;;;;;;4928866;28;20043;-65
2022/11/27 00:26:15;;;;;;;22.70;7.60;;;6.30;99.90;;;;;;4938694;29;20054;-65
2022/11/27 00:28:41;;;;;;;27.85;7.65;;;6.30;99.90;;;;;;4935049;28;20044;-65
2022/11/27 00:31:13;;;;;;;21.85;7.10;;;6.30;99.90;;;;;;4915580;29;20055;-65
2022/11/27 00:33:39;;;;;;;26.95;7.72;;;6.30;99.90;;;;;;4929405;29;20051;-65
2022/11/27 00:36:06;;;;;;;19.83;7.45;;;6.30;99.90;;;;;;4926676;28;20499;-66
2022/11/27 00:38:33;;;;;;;27.85;7.18;;;6.30;99.90;;;;;;4925542;28;20044;-65
2022/11/27 00:41:07;;;;;;;27.50;7.25;;;6.30;99.90;;;;;;4930292;29;20154;-67
2022/11/27 00:43:35;;;;;;;18.77;7.35;;;6.30;99.90;;;;;;4937557;29;20549;-65
2022/11/27 00:46:01;;;;;;;24.00;7.07;;;6.20;99.90;;;;;;4937573;29;20043;-65
2022/11/27 00:48:27;;;;;;;22.50;7.47;;;6.20;99.90;;;;;;4929460;28;20056;-64
2022/11/27 00:51:02;;;;;;;18.50;6.97;;;6.20;99.90;;;;;;4927594;28;20059;-65
2022/11/27 00:53:28;;;;;;;19.20;6.80;;;6.20;99.90;;;;;;4912348;29;20435;-65
2022/11/27 00:55:54;;;;;;;18.65;6.90;;;6.20;99.90;;;;;;4933041;29;20062;-65
2022/11/27 00:58:21;;;;;;;19.52;7.28;;;6.20;99.90;;;;;;4925373;29;20047;-65
2022/11/27 01:00:56;;;;;;;25.67;7.72;;;6.10;99.90;;;;;;4929630;29;20513;-65
2022/11/27 01:03:23;;;;;;;28.52;7.53;;;6.10;99.90;;;;;;4929428;28;20044;-65
2022/11/27 01:05:49;;;;;;;27.15;7.30;;;6.10;99.90;;;;;;4927873;28;20133;-64
2022/11/27 01:08:15;;;;;;;26.52;7.53;;;6.10;99.90;;;;;;4929712;29;20046;-64
2022/11/27 01:10:51;;;;;;;16.45;6.55;;;6.00;99.90;;;;;;4907887;29;20035;-66
2022/11/27 01:13:18;;;;;;;22.60;7.50;;;6.00;99.90;;;;;;4944419;28;20048;-65
2022/11/27 01:15:45;;;;;;;22.25;7.30;;;6.00;99.90;;;;;;4926212;28;20054;-65
2022/11/27 01:18:11;;;;;;;25.40;7.03;;;6.00;99.90;;;;;;4930974;29;20522;-65
2022/11/27 01:20:38;;;;;;;20.95;7.05;;;6.00;99.90;;;;;;4923552;29;20086;-65
2022/11/27 01:23:05;;;;;;;17.55;7.25;;;6.00;99.90;;;;;;4927753;29;20099;-64
2022/11/27 01:25:32;;;;;;;22.33;7.65;;;5.90;99.90;;;;;;4934250;28;20055;-65
2022/11/27 01:27:58;;;;;;;25.63;7.40;;;5.90;99.90;;;;;;4928597;28;20323;-65
2022/11/27 01:30:24;;;;;;;23.33;7.43;;;5.90;99.90;;;;;;4935864;28;20130;-65
2022/11/27 01:32:50;;;;;;;23.00;7.60;;;5.90;99.90;;;;;;4927465;29;20050;-65
2022/11/27 01:35:16;;;;;;;20.45;7.32;;;5.90;99.90;;;;;;4928815;28;20043;-65
2022/11/27 01:37:42;;;;;;;18.75;6.80;;;5.90;99.90;;;;;;4927301;29;20043;-65
2022/11/27 01:40:08;;;;;;;23.88;7.45;;;5.90;99.90;;;;;;4930955;29;20051;-65
2022/11/27 01:42:34;;;;;;;16.67;6.70;;;5.90;99.90;;;;;;4945181;28;20138;-66
2022/11/27 01:45:00;;;;;;;19.23;6.82;;;5.90;99.90;;;;;;4914994;29;20105;-64
2022/11/27 01:47:35;;;;;;;23.05;7.55;;;5.80;99.90;;;;;;4924404;29;20056;-65
2022/11/27 01:50:11;;;;;;;18.70;7.00;;;5.80;99.90;;;;;;4929647;28;20187;-65
2022/11/27 01:52:41;;;;;;;18.25;7.47;;;5.80;99.90;;;;;;4932323;29;20046;-67
2022/11/27 01:55:07;;;;;;;19.58;7.75;;;5.70;99.90;;;;;;4933545;28;20035;-66
2022/11/27 01:57:38;;;;;;;23.75;8.30;;;5.70;99.90;;;;;;4934434;29;20058;-65
2022/11/27 02:00:08;;;;;;;19.77;7.75;;;5.70;99.90;;;;;;4930782;29;20071;-64
2022/11/27 02:02:34;;;;;;;20.58;7.97;;;5.70;99.90;;;;;;4931510;29;20490;-65
2022/11/27 02:05:00;;;;;;;21.08;6.80;;;5.70;99.90;;;;;;4921722;29;20054;-66
2022/11/27 02:07:25;;;;;;;20.70;8.13;;;5.70;99.90;;;;;;4931065;29;20065;-65
2022/11/27 02:09:51;;;;;;;21.98;8.00;;;5.70;99.90;;;;;;4923076;29;20066;-65
2022/11/27 02:12:29;;;;;;;19.60;7.38;;;5.70;99.90;;;;;;4932153;29;20418;-65
2022/11/27 02:15:22;;;;;;;26.50;7.88;;;5.70;99.90;;;;;;4937039;29;20055;-65
2022/11/27 02:18:03;;;;;;;21.60;8.07;;;5.70;99.90;;;;;;4921122;29;20515;-65
2022/11/27 02:20:43;;;;;;;21.42;7.80;;;5.60;99.90;;;;;;4939200;29;20878;-65
2022/11/27 02:23:26;;;;;;;31.08;7.88;;;5.60;99.90;;;;;;4915073;29;20049;-65
2022/11/27 02:26:29;;;;;;;16.63;7.95;;;5.70;99.90;;;;;;4947800;28;20738;-64
2022/11/27 02:29:05;;;;;;;21.70;7.97;;;5.70;99.90;;;;;;4944975;28;20051;-65
2022/11/27 02:31:44;;;;;;;23.42;8.07;;;5.70;99.90;;;;;;4931483;29;20043;-65
2022/11/27 02:34:42;;;;;;;17.40;7.72;;;5.70;99.90;;;;;;4927847;29;20416;-65
2022/11/27 02:37:22;;;;;;;22.60;7.30;;;5.70;99.90;;;;;;4928529;29;20114;-66
2022/11/27 02:39:50;;;;;;;20.08;7.78;;;5.70;99.90;;;;;;4939735;29;20043;-65
2022/11/27 02:42:19;;;;;;;23.90;7.70;;;5.80;99.90;;;;;;4915547;29;20355;-65
2022/11/27 02:44:56;;;;;;;18.58;7.60;;;5.80;99.90;;;;;;4931416;28;20062;-65
2022/11/27 02:47:22;;;;;;;16.95;7.35;;;5.70;99.90;;;;;;4930377;28;20974;-66
2022/11/27 02:49:50;;;;;;;15.90;7.15;;;5.70;99.90;;;;;;4935919;28;20045;-64
2022/11/27 02:52:18;;;;;;;20.17;7.93;;;5.80;99.90;;;;;;4932717;28;20051;-65
2022/11/27 02:54:46;;;;;;;18.67;7.45;;;5.70;99.90;;;;;;4931040;28;20110;-65
2022/11/27 02:57:14;;;;;;;23.30;7.85;;;5.80;99.90;;;;;;4932354;28;20444;-66
2022/11/27 02:59:42;;;;;;;17.88;7.13;;;5.80;99.90;;;;;;4932654;29;20073;-67
2022/11/27 03:02:13;;;;;;;19.20;7.30;;;5.80;99.90;;;;;;4946278;28;20047;-65
2022/11/27 03:04:51;;;;;;;25.98;7.40;;;5.80;99.90;;;;;;4933289;28;20086;-65
2022/11/27 03:07:58;;;;;;;24.52;7.22;;;5.80;99.90;;;;;;4924925;29;20051;-66
2022/11/27 03:10:59;;;;;;;18.80;6.97;;;5.90;99.90;;;;;;4930382;29;20048;-64
2022/11/27 03:13:26;;;;;;;20.60;6.90;;;5.90;99.90;;;;;;4918391;29;20063;-65
2022/11/27 03:16:13;;;;;;;16.48;6.97;;;5.90;99.90;;;;;;4936077;29;20044;-65
2022/11/27 03:18:42;;;;;;;22.23;7.05;;;5.90;99.90;;;;;;4937242;28;20047;-65
2022/11/27 03:21:25;;;;;;;18.80;6.72;;;6.00;99.90;;;;;;4935485;28;20058;-66
2022/11/27 03:23:51;;;;;;;21.13;7.30;;;5.90;99.90;;;;;;4938214;29;20409;-65
2022/11/27 03:26:17;;;;;;;18.65;6.88;;;6.10;99.90;;;;;;4920704;29;20055;-65
2022/11/27 03:28:44;;;;;;;16.90;6.63;;;6.00;99.90;;;;;;4938640;29;20084;-66
2022/11/27 03:31:11;;;;;;;15.95;6.65;;;6.00;99.90;;;;;;4936713;29;20100;-66
2022/11/27 03:33:37;;;;;;;16.13;6.32;;;6.00;99.90;;;;;;4941011;29;20773;-65
2022/11/27 03:36:11;;;;;;;17.10;6.80;;;6.00;99.90;;;;;;4938110;29;20047;-65
2022/11/27 03:38:37;;;;;;;19.60;6.50;;;6.00;99.90;;;;;;4940789;29;20077;-65
2022/11/27 03:41:23;;;;;;;16.38;6.25;;;6.00;99.90;;;;;;4933432;29;20043;-66
2022/11/27 03:44:14;;;;;;;20.15;6.43;;;6.10;99.90;;;;;;4933573;29;20189;-65
2022/11/27 03:46:58;;;;;;;19.50;6.70;;;6.00;99.90;;;;;;4932314;29;20047;-65
2022/11/27 03:49:32;;;;;;;18.95;6.30;;;6.10;99.90;;;;;;4919207;29;20052;-65
2022/11/27 03:52:05;;;;;;;19.00;6.25;;;6.10;99.90;;;;;;4897984;29;20514;-65
2022/11/27 03:54:59;;;;;;;14.73;5.63;;;6.00;99.90;;;;;;4885706;29;20091;-65
2022/11/27 03:57:34;;;;;;;21.40;6.78;;;6.10;99.90;;;;;;4915617;29;20586;-66
2022/11/27 04:00:03;;;;;;;14.15;5.60;;;6.10;99.90;;;;;;4913835;29;20613;-65
2022/11/27 04:02:38;;;;;;;12.95;5.85;;;6.10;99.90;;;;;;4901311;29;20510;-66
2022/11/27 04:05:05;;;;;;;12.93;5.97;;;6.10;99.90;;;;;;4898811;29;20167;-66
2022/11/27 04:07:31;;;;;;;17.25;6.93;;;6.10;99.90;;;;;;4899206;29;20053;-66
2022/11/27 04:09:56;;;;;;;17.23;6.05;;;6.10;99.90;;;;;;4897126;29;20119;-65
2022/11/27 04:12:22;;;;;;;16.27;5.78;;;6.10;99.90;;;;;;4902816;29;20090;-65
2022/11/27 04:14:48;;;;;;;17.17;5.93;;;6.10;99.90;;;;;;4882526;29;20079;-65
2022/11/27 04:17:13;;;;;;;17.65;5.85;;;6.20;99.90;;;;;;4903592;29;20487;-65
2022/11/27 04:19:39;;;;;;;15.50;6.00;;;6.10;99.90;;;;;;4898720;29;20834;-66
2022/11/27 04:22:05;;;;;;;16.75;6.05;;;6.10;99.90;;;;;;4901843;29;20491;-65
2022/11/27 04:24:31;;;;;;;16.40;5.97;;;6.10;99.90;;;;;;4902579;29;20054;-67
2022/11/27 04:26:56;;;;;;;12.85;5.95;;;6.10;99.90;;;;;;4901300;29;20126;-65
2022/11/27 04:29:22;;;;;;;13.52;5.38;;;6.20;99.90;;;;;;4901294;29;20091;-64
2022/11/27 04:31:48;;;;;;;16.17;5.60;;;6.10;99.90;;;;;;4904035;29;20035;-65
2022/11/27 04:34:14;;;;;;;17.25;5.93;;;6.10;99.90;;;;;;4905718;29;20044;-66
2022/11/27 04:36:40;;;;;;;13.60;5.45;;;6.10;99.90;;;;;;4914677;29;20050;-65
2022/11/27 04:39:06;;;;;;;18.42;6.60;;;6.10;99.90;;;;;;4891160;29;20058;-65
2022/11/27 04:41:32;;;;;;;14.85;5.70;;;6.10;99.90;;;;;;4904608;29;20055;-65
2022/11/27 04:43:58;;;;;;;19.20;5.50;;;6.10;99.90;;;;;;4902985;29;20055;-66
2022/11/27 04:46:24;;;;;;;17.77;5.28;;;6.10;99.90;;;;;;4900933;29;20172;-64
2022/11/27 04:48:49;;;;;;;15.23;6.07;;;6.10;99.90;;;;;;4915342;29;20052;-65
2022/11/27 04:51:15;;;;;;;16.10;5.22;;;6.10;99.90;;;;;;4895084;29;20071;-64
2022/11/27 04:53:41;;;;;;;12.90;5.22;;;6.10;99.90;;;;;;4902613;29;20044;-65
2022/11/27 04:56:07;;;;;;;16.40;6.00;;;6.00;99.90;;;;;;4913439;29;20044;-64
2022/11/27 04:58:33;;;;;;;15.38;5.20;;;6.10;99.90;;;;;;4888346;29;20040;-64
2022/11/27 05:00:58;;;;;;;14.90;5.97;;;6.00;99.90;;;;;;4900843;29;20039;-64
2022/11/27 05:03:24;;;;;;;15.90;5.32;;;6.10;99.90;;;;;;4914205;29;20044;-65
2022/11/27 05:05:55;;;;;;;15.23;5.15;;;6.10;99.90;;;;;;4891212;29;20121;-65
2022/11/27 05:08:21;;;;;;;15.27;5.28;;;6.00;99.90;;;;;;4896833;29;20410;-65
2022/11/27 05:11:09;;;;;;;15.95;5.10;;;6.00;99.90;;;;;;4903755;29;20127;-64
2022/11/27 05:13:34;;;;;;;11.48;5.15;;;6.00;99.90;;;;;;4898855;29;20083;-65
2022/11/27 05:16:01;;;;;;;12.80;5.15;;;6.00;99.90;;;;;;4888999;29;20131;-65
2022/11/27 05:18:27;;;;;;;12.65;4.95;;;6.00;99.90;;;;;;4896570;29;20122;-65
2022/11/27 05:21:04;;;;;;;12.68;5.13;;;6.00;99.90;;;;;;4883956;29;20058;-65
2022/11/27 05:23:30;;;;;;;16.23;5.45;;;6.00;99.90;;;;;;4901116;29;20044;-66
2022/11/27 05:25:56;;;;;;;13.40;5.28;;;6.00;99.90;;;;;;4884995;29;20087;-65
2022/11/27 05:28:23;;;;;;;12.48;4.55;;;6.00;99.90;;;;;;4894034;29;20055;-65
2022/11/27 05:30:49;;;;;;;13.63;5.43;;;6.00;99.90;;;;;;4903625;29;20051;-65
2022/11/27 05:33:18;;;;;;;16.25;4.97;;;6.00;99.90;;;;;;4910644;29;20054;-65
2022/11/27 05:35:44;;;;;;;14.40;5.15;;;5.90;99.90;;;;;;4914283;29;20044;-65
2022/11/27 05:38:11;;;;;;;13.73;4.75;;;5.90;99.90;;;;;;4899485;29;20048;-65
2022/11/27 05:40:37;;;;;;;13.07;4.70;;;5.90;99.90;;;;;;4916218;29;20055;-65
2022/11/27 05:43:03;;;;;;;14.27;4.78;;;5.90;99.90;;;;;;4897499;29;20052;-64
2022/11/27 05:45:29;;;;;;;12.45;4.78;;;5.90;99.90;;;;;;4898554;29;20059;-65
2022/11/27 05:47:56;;;;;;;14.45;4.60;;;5.90;99.90;;;;;;4907397;29;20486;-65
2022/11/27 05:50:22;;;;;;;13.00;4.82;;;5.90;99.90;;;;;;4946238;28;20063;-65
2022/11/27 05:52:48;;;;;;;12.90;4.50;;;5.90;99.90;;;;;;4922062;29;20063;-65
2022/11/27 05:55:13;;;;;;;15.65;4.80;;;5.90;99.90;;;;;;4934408;29;20050;-65
2022/11/27 05:57:39;;;;;;;17.27;4.63;;;5.90;99.90;;;;;;4929732;29;20078;-65
2022/11/27 06:00:06;;;;;;;12.10;4.72;;;5.90;99.90;;;;;;4935036;29;20055;-65
2022/11/27 06:02:32;;;;;;;11.18;4.95;;;5.90;99.90;;;;;;4930601;28;20044;-66
2022/11/27 06:04:58;;;;;;;11.55;4.43;;;5.90;99.90;;;;;;4935155;28;20123;-65
2022/11/27 06:07:24;;;;;;;15.70;4.60;;;5.90;99.90;;;;;;4923495;29;20130;-66
2022/11/27 06:09:49;;;;;;;16.58;5.03;;;5.90;99.90;;;;;;4936872;29;20118;-66
2022/11/27 06:12:15;;;;;;;15.02;4.78;;;5.80;99.90;;;;;;4939307;29;20146;-65
2022/11/27 06:14:41;;;;;;;12.25;4.45;;;5.90;99.90;;;;;;4922365;28;20405;-65
2022/11/27 06:17:07;;;;;;;12.70;4.40;;;5.90;99.90;;;;;;4923079;29;20399;-65
2022/11/27 06:19:32;;;;;;;12.95;4.10;;;5.90;99.90;;;;;;4930477;29;20420;-66
2022/11/27 06:21:58;;;;;;;18.85;4.72;;;5.90;99.90;;;;;;4927791;28;20163;-66
2022/11/27 06:24:24;;;;;;;12.45;4.35;;;5.90;99.90;;;;;;4921157;29;20051;-65
2022/11/27 06:26:50;;;;;;;12.30;4.57;;;5.90;99.90;;;;;;4941801;29;20162;-65
2022/11/27 06:29:16;;;;;;;12.65;4.20;;;5.90;99.90;;;;;;4935500;29;20117;-65
2022/11/27 06:31:41;;;;;;;14.60;5.05;;;5.90;99.90;;;;;;4938496;29;20478;-66
2022/11/27 06:34:07;;;;;;;13.35;4.40;;;5.90;99.90;;;;;;4932556;29;20812;-65
2022/11/27 06:36:36;;;;;;;10.70;4.20;;;5.90;99.90;;;;;;4921372;29;21949;-65
2022/11/27 06:39:04;;;;;;;10.20;4.30;;;5.90;99.90;;;;;;4938548;28;20475;-65
2022/11/27 06:41:32;;;;;;;11.40;4.32;;;5.90;99.90;;;;;;4936484;29;20390;-65
2022/11/27 06:43:59;;;;;;;11.90;4.32;;;6.00;99.90;;;;;;4936469;29;20421;-65
2022/11/27 06:46:26;;;;;;;10.63;4.35;;;5.90;99.90;;;;;;4933825;29;20478;-65
2022/11/27 06:48:53;;;;;;;11.48;4.32;;;5.90;99.90;;;;;;4928688;28;20054;-65
2022/11/27 06:51:22;;;;;;;10.82;4.28;;;5.90;99.90;;;;;;4933551;29;20078;-65
2022/11/27 06:53:49;;;;;;;8.40;3.97;;;5.90;99.90;;;;;;4931255;29;20051;-65
2022/11/27 06:56:18;;;;;;;13.23;4.20;;;5.90;99.90;;;;;;4935605;29;20410;-64
2022/11/27 06:58:44;;;;;;;11.35;4.35;;;5.90;99.90;;;;;;4932281;28;20060;-65
2022/11/27 07:01:15;;;;;;;12.32;4.30;;;5.90;99.90;;;;;;4941388;29;20486;-65
2022/11/27 07:03:42;;;;;;;15.23;5.18;;;5.90;99.90;;;;;;4927496;29;20118;-65
2022/11/27 07:06:12;;;;;;;9.98;4.28;;;6.00;99.90;;;;;;4936216;29;20082;-65
2022/11/27 07:08:38;;;;;;;11.38;4.13;;;5.90;99.90;;;;;;4934661;28;20051;-65
2022/11/27 07:11:07;;;;;;;8.52;4.38;;;5.90;99.90;;;;;;4938257;29;20517;-65
2022/11/27 07:13:34;;;;;;;15.68;4.93;;;5.90;99.90;;;;;;4938856;29;20059;-65
2022/11/27 07:16:01;;;;;;;11.90;4.93;;;5.90;99.90;;;;;;4931871;29;20097;-66
2022/11/27 07:18:27;;;;;;;13.05;4.75;;;5.90;99.90;;;;;;4936589;29;20070;-65
2022/11/27 07:20:53;;;;;;;14.02;4.78;;;5.90;99.90;;;;;;4928458;28;20078;-65
2022/11/27 07:23:19;;;;;;;12.70;5.20;;;5.80;99.90;;;;;;4933938;29;20056;-65
2022/11/27 07:25:45;;;;;;;19.33;4.72;;;5.80;99.90;;;;;;4931895;28;20050;-65
2022/11/27 07:28:11;;;;;;;11.55;4.38;;;5.80;99.90;;;;;;4940664;29;20872;-66
2022/11/27 07:30:37;;;;;;;10.60;4.47;;;5.80;99.90;;;;;;4933389;29;20043;-66
2022/11/27 07:33:03;;;;;;;11.20;4.50;;;5.80;99.90;;;;;;4935242;29;20047;-65
2022/11/27 07:35:29;;;;;;;15.05;4.57;;;5.80;99.90;;;;;;4905528;29;20563;-65
2022/11/27 07:37:54;;;;;;;13.38;5.07;;;5.80;99.90;;;;;;4934107;28;20114;-65
2022/11/27 07:40:20;;;;;;;11.43;4.53;;;5.80;99.90;;;;;;4936645;29;20072;-64
2022/11/27 07:42:46;;;;;;;12.35;4.53;;;5.80;99.90;;;;;;4935814;29;20149;-65
2022/11/27 07:45:12;;;;;;;11.45;4.38;;;5.80;99.90;;;;;;4934511;29;20058;-65
2022/11/27 07:47:38;;;;;;;12.50;4.70;;;5.80;99.90;;;;;;4927242;28;20594;-65
2022/11/27 07:50:07;;;;;;;11.55;4.50;;;5.80;99.90;;;;;;4902278;29;20138;-66
2022/11/27 07:52:36;;;;;;;10.73;4.50;;;5.80;99.90;;;;;;4916097;29;20059;-65
2022/11/27 07:55:03;;;;;;;14.18;4.88;;;5.80;99.90;;;;;;4904380;29;20062;-65
2022/11/27 07:57:29;;;;;;;11.00;4.72;;;5.80;99.90;;;;;;4916268;29;20063;-65
2022/11/27 07:59:55;;;;;;;10.23;4.43;;;5.80;99.90;;;;;;4898071;29;20178;-65
2022/11/27 08:02:21;;;;;;;17.45;5.45;;;5.80;99.90;;;;;;4901930;29;20121;-65
2022/11/27 08:04:47;;;;;;;13.82;4.50;;;5.90;99.90;;;;;;4915151;29;20047;-64
2022/11/27 08:07:12;;;;;;;16.60;5.40;;;5.90;99.90;;;;;;4901435;29;20051;-65
2022/11/27 08:09:38;;;;;;;12.90;4.55;;;6.00;99.90;;;;;;4888620;29;20150;-65
2022/11/27 08:12:06;;;;;;;11.48;4.75;;;6.00;99.90;;;;;;4907211;29;20119;-65
2022/11/27 08:14:32;;;;;;;13.27;5.40;;;6.00;99.90;;;;;;4903831;29;20134;-66
2022/11/27 08:16:58;;;;;;;8.60;4.45;;;5.90;99.90;;;;;;4896055;29;20055;-64
2022/11/27 08:19:24;;;;;;;12.45;4.80;;;6.00;99.90;;;;;;4903561;29;20150;-65
2022/11/27 08:21:49;;;;;;;12.52;5.18;;;6.00;99.90;;;;;;4901227;29;20373;-65
2022/11/27 08:24:15;;;;;;;10.93;5.38;;;6.00;99.90;;;;;;4895507;29;20056;-65
2022/11/27 08:26:41;;;;;;;13.02;5.57;;;6.00;99.90;;;;;;4901450;29;20725;-66
2022/11/27 08:29:10;;;;;;;10.70;5.45;;;6.00;99.90;;;;;;4895660;29;20460;-65
2022/11/27 08:31:36;;;;;;;17.20;5.57;;;6.00;99.90;;;;;;4896461;29;20138;-65
2022/11/27 08:34:02;;;;;;;16.17;5.38;;;6.00;99.90;;;;;;4911961;29;20534;-66
2022/11/27 08:36:28;;;;;;;15.23;6.20;;;6.00;99.90;;;;;;4897729;29;20051;-66
2022/11/27 08:38:54;;;;;;;11.52;5.40;;;6.00;99.90;;;;;;4917470;29;20043;-64
2022/11/27 08:41:20;;;;;;;16.13;5.43;;;5.90;99.90;;;;;;4882103;29;20051;-66
2022/11/27 08:43:46;;;;;;;17.10;6.00;;;5.90;99.90;;;;;;4884611;29;20048;-65
2022/11/27 08:46:12;;;;;;;13.48;6.13;;;6.00;99.90;;;;;;4901431;29;20055;-65
2022/11/27 08:48:38;;;;;;;9.90;5.75;;;6.00;99.90;;;;;;4904077;29;20055;-64
2022/11/27 08:51:06;;;;;;;14.43;6.10;;;6.00;99.90;;;;;;4935215;29;20047;-65
2022/11/27 08:53:32;;;;;;;12.40;5.65;;;6.00;99.90;;;;;;4933248;28;20446;-65
2022/11/27 08:56:05;;;;;;;15.00;5.53;;;6.00;99.90;;;;;;4916056;29;20131;-65
2022/11/27 08:58:31;;;;;;;11.00;6.15;;;6.00;99.90;;;;;;4933122;29;20056;-65
2022/11/27 09:00:56;;;;;;;14.43;5.68;;;6.00;99.90;;;;;;4932581;28;20425;-65
2022/11/27 09:03:22;;;;;;;16.38;6.00;;;6.00;99.90;;;;;;4931882;29;20106;-65
2022/11/27 09:05:48;;;;;;;11.27;5.80;;;6.00;99.90;;;;;;4930159;28;20082;-65
2022/11/27 09:08:19;;;;;;;13.75;5.85;;;6.00;99.90;;;;;;4904628;29;20461;-66
2022/11/27 09:10:45;;;;;;;11.25;6.03;;;6.00;99.90;;;;;;4932388;29;20130;-64
2022/11/27 09:13:11;;;;;;;12.18;6.38;;;6.00;99.90;;;;;;4930224;28;20173;-65
2022/11/27 09:15:36;;;;;;;11.13;5.50;;;6.10;99.90;;;;;;4911766;29;20051;-65
2022/11/27 09:18:02;;;;;;;15.10;6.25;;;6.00;99.90;;;;;;4926660;29;20410;-66
2022/11/27 09:20:28;;;;;;;14.07;6.00;;;6.10;99.90;;;;;;4922797;29;20117;-65
2022/11/27 09:22:54;;;;;;;17.35;6.47;;;6.10;99.90;;;;;;4924016;29;20517;-65
2022/11/27 09:25:19;;;;;;;14.07;6.70;;;6.10;99.90;;;;;;4929999;29;20051;-65
2022/11/27 09:27:45;;;;;;;12.20;6.55;;;6.00;99.90;;;;;;4928658;28;23759;-65
2022/11/27 09:30:11;;;;;;;17.63;6.72;;;6.10;99.90;;;;;;4928933;29;20051;-66
2022/11/27 09:32:37;;;;;;;14.18;6.93;;;6.10;99.90;;;;;;4928088;29;20055;-64
2022/11/27 09:35:03;;;;;;;14.73;7.38;;;6.10;99.90;;;;;;4917333;28;20462;-64
2022/11/27 09:37:29;;;;;;;15.52;6.15;;;6.10;99.90;;;;;;4919062;28;20062;-64
2022/11/27 09:39:56;;;;;;;13.50;6.47;;;6.10;99.90;;;;;;4919101;28;20043;-65
2022/11/27 09:42:52;;;;;;;16.92;6.88;;;6.00;99.90;;;;;;4925297;28;20202;-64
2022/11/27 09:45:18;;;;;;;16.02;6.72;;;6.10;99.90;;;;;;4928582;28;20047;-66
2022/11/27 09:48:12;;;;;;;11.38;6.45;;;6.00;99.90;;;;;;4925265;28;20154;-65
2022/11/27 09:50:48;;;;;;;14.65;7.07;;;6.10;99.90;;;;;;4921557;29;20047;-65
2022/11/27 09:53:30;;;;;;;15.85;7.15;;;6.10;99.90;;;;;;4939273;29;20086;-64
2022/11/27 09:55:58;;;;;;;16.33;7.13;;;6.10;99.90;;;;;;4943678;28;20055;-64
2022/11/27 09:58:35;;;;;;;15.23;6.97;;;6.00;99.90;;;;;;4928706;28;20043;-65
2022/11/27 10:01:13;;;;;;;15.00;6.72;;;6.10;99.90;;;;;;4927010;29;20043;-65
2022/11/27 10:03:43;;;;;;;18.13;7.20;;;6.10;99.90;;;;;;4934255;29;20142;-65
2022/11/27 10:06:39;;;;;;;12.52;6.80;;;6.00;99.90;;;;;;4935939;28;20061;-65
2022/11/27 10:09:23;;;;;;;13.77;7.13;;;6.10;99.90;;;;;;4936258;28;20458;-65
2022/11/27 10:12:10;;;;;;;17.20;7.63;;;6.00;99.90;;;;;;4911240;29;20101;-65
2022/11/27 10:14:44;;;;;;;18.95;7.65;;;6.00;99.90;;;;;;4923309;28;20043;-65
2022/11/27 10:17:24;;;;;;;18.25;7.15;;;6.00;99.90;;;;;;4927399;28;20044;-65
2022/11/27 10:20:11;;;;;;;16.65;7.38;;;6.10;99.90;;;;;;4914045;29;20082;-65
2022/11/27 10:23:09;;;;;;;14.48;7.05;;;6.10;99.90;;;;;;4937569;29;20482;-66
2022/11/27 10:26:01;;;;;;;13.65;7.30;;;6.10;99.90;;;;;;4921192;29;20078;-66
2022/11/27 10:28:46;;;;;;;17.90;7.23;;;6.10;99.90;;;;;;4929394;29;20078;-65
2022/11/27 10:31:46;;;;;;;14.32;7.15;;;6.10;99.90;;;;;;4930374;29;20124;-64
2022/11/27 10:34:19;;;;;;;17.40;7.20;;;6.10;99.90;;;;;;4930453;29;20557;-65
2022/11/27 10:36:49;;;;;;;17.45;8.23;;;6.10;99.90;;;;;;4928950;29;20032;-65
2022/11/27 10:39:21;;;;;;;16.95;7.25;;;6.10;99.90;;;;;;4927048;29;20047;-65
2022/11/27 10:42:02;;;;;;;13.05;7.10;;;6.10;99.90;;;;;;4926946;28;20043;-66
2022/11/27 10:44:33;;;;;;;15.00;7.30;;;6.10;99.90;;;;;;4927543;29;20498;-65
2022/11/27 10:47:04;;;;;;;15.73;7.75;;;6.10;99.90;;;;;;4936803;29;20098;-64
2022/11/27 10:49:30;;;;;;;16.85;7.97;;;6.10;99.90;;;;;;4928308;29;20086;-65
2022/11/27 10:51:56;;;;;;;20.60;8.75;;;6.20;99.90;;;;;;4914194;28;20054;-65
2022/11/27 10:54:44;;;;;;;19.50;7.82;;;6.10;99.90;;;;;;4931797;28;20052;-66
2022/11/27 10:57:17;;;;;;;14.27;7.38;;;6.20;99.90;;;;;;4928727;28;20119;-65
2022/11/27 10:59:54;;;;;;;16.63;7.68;;;6.20;99.90;;;;;;4927723;29;20494;-64
2022/11/27 11:02:34;;;;;;;16.17;7.40;;;6.20;99.90;;;;;;4926561;29;21198;-64
2022/11/27 11:05:22;;;;;;;17.30;8.32;;;6.20;99.90;;;;;;4923382;29;20396;-64
2022/11/27 11:08:14;;;;;;;15.82;7.68;;;6.20;99.90;;;;;;4925934;28;20491;-65
2022/11/27 11:10:53;;;;;;;16.40;7.85;;;6.20;99.90;;;;;;4947768;28;20047;-65
2022/11/27 11:13:30;;;;;;;14.20;7.55;;;6.20;99.90;;;;;;4937525;29;20044;-65
2022/11/27 11:16:04;;;;;;;17.35;7.68;;;6.30;99.90;;;;;;4928590;28;20052;-66
2022/11/27 11:18:42;;;;;;;16.05;8.23;;;6.30;99.90;;;;;;4931232;29;20043;-65
2022/11/27 11:21:43;;;;;;;16.30;7.57;;;6.30;99.90;;;;;;4929696;29;20133;-64
2022/11/27 11:24:24;;;;;;;15.65;7.82;;;6.30;99.90;;;;;;4855366;29;20081;-66
2022/11/27 11:26:54;;;;;;;14.82;7.43;;;6.30;99.90;;;;;;4923675;28;20547;-65
2022/11/27 11:29:31;;;;;;;15.07;8.10;;;6.30;99.90;;;;;;4937273;29;20047;-65
2022/11/27 11:32:07;;;;;;;13.60;7.57;;;6.20;99.90;;;;;;4914963;29;20043;-65
2022/11/27 11:34:34;;;;;;;18.33;7.30;;;6.30;99.90;;;;;;4930599;29;20126;-65
2022/11/27 11:37:16;;;;;;;18.08;7.93;;;6.30;99.90;;;;;;4914210;29;20189;-64
2022/11/27 11:39:52;;;;;;;14.85;7.13;;;6.30;99.90;;;;;;4931181;29;20110;-64
2022/11/27 11:42:23;;;;;;;16.13;7.47;;;6.30;99.90;;;;;;4927793;29;20048;-64
2022/11/27 11:44:51;;;;;;;14.07;8.27;;;6.40;99.90;;;;;;4930538;29;20043;-65
2022/11/27 11:47:20;;;;;;;16.60;8.18;;;6.40;99.90;;;;;;4925213;29;20043;-64
2022/11/27 11:49:46;;;;;;;17.23;8.05;;;6.40;99.90;;;;;;4877708;29;20048;-65
2022/11/27 11:52:27;;;;;;;14.15;7.82;;;6.40;99.90;;;;;;4898307;29;20411;-65
2022/11/27 11:55:11;;;;;;;15.30;7.43;;;6.40;99.90;;;;;;4890753;29;20510;-64
2022/11/27 11:57:52;;;;;;;15.60;7.55;;;6.40;99.90;;;;;;4908193;29;20056;-64
2022/11/27 12:00:24;;;;;;;16.02;7.70;;;6.40;99.90;;;;;;4896928;29;20043;-66
2022/11/27 12:03:33;;;;;;;14.68;7.57;;;6.40;99.90;;;;;;4907132;29;20052;-64
2022/11/27 12:06:30;;;;;;;16.55;6.78;;;6.40;99.90;;;;;;4787421;29;20058;-65
2022/11/27 12:09:29;;;;;;;16.70;7.75;;;6.40;99.90;;;;;;4895958;29;20056;-65
2022/11/27 12:12:15;;;;;;;14.23;7.65;;;6.40;99.90;;;;;;4892597;29;20443;-65
2022/11/27 12:15:05;;;;;;;19.13;7.78;;;6.40;99.90;;;;;;4880709;29;20075;-66
2022/11/27 12:18:06;;;;;;;13.23;7.07;;;6.50;99.90;;;;;;4907697;29;20140;-59
2022/11/27 12:21:14;;;;;;;16.83;8.00;;;6.40;99.90;;;;;;4814859;29;20205;-65
2022/11/27 12:23:53;;;;;;;12.75;7.43;;;6.50;99.90;;;;;;4880765;29;20068;-63
2022/11/27 12:26:58;;;;;;;13.23;6.80;;;6.50;99.90;;;;;;4896155;29;20122;-64
2022/11/27 12:30:13;;;;;;;16.33;6.97;;;6.40;99.90;;;;;;4877335;29;20098;-63
2022/11/27 12:32:48;;;;;;;15.02;7.10;;;6.50;99.90;;;;;;4861130;29;20095;-63
2022/11/27 12:36:02;;;;;;;15.68;7.50;;;6.50;99.90;;;;;;4894412;29;20067;-65
2022/11/27 12:39:12;;;;;;;19.55;7.65;;;6.50;99.90;;;;;;4894706;29;20086;-64
2022/11/27 12:42:07;;;;;;;13.55;7.50;;;6.40;99.90;;;;;;4878971;29;20071;-63
2022/11/27 12:44:44;;;;;;;13.20;7.10;;;6.50;99.90;;;;;;4863686;29;20060;-63
2022/11/27 12:47:16;;;;;;;15.10;7.15;;;6.50;99.90;;;;;;4895639;29;20048;-62
2022/11/27 12:49:50;;;;;;;15.40;7.33;;;6.50;99.90;;;;;;4935748;29;20113;-62
2022/11/27 12:52:27;;;;;;;13.57;7.00;;;6.50;99.90;;;;;;4928986;29;20082;-65
2022/11/27 12:55:02;;;;;;;14.20;7.22;;;6.50;99.90;;;;;;4932168;29;20059;-64
2022/11/27 12:57:53;;;;;;;17.92;7.15;;;6.50;99.90;;;;;;4932080;29;20057;-64
2022/11/27 13:00:25;;;;;;;14.52;6.88;;;6.50;99.90;;;;;;4917666;29;20086;-63
2022/11/27 13:03:09;;;;;;;18.15;7.47;;;6.50;99.90;;;;;;4923710;29;20051;-64
2022/11/27 13:05:54;;;;;;;18.38;7.85;;;6.50;99.90;;;;;;4930757;28;20054;-62
2022/11/27 13:08:29;;;;;;;13.27;6.85;;;6.50;99.90;;;;;;4930608;29;20070;-64
2022/11/27 13:10:59;;;;;;;16.65;7.45;;;6.50;99.90;;;;;;4936193;28;20069;-62
2022/11/27 13:13:57;;;;;;;13.68;7.15;;;6.50;99.90;;;;;;4927778;29;20051;-63